Time;durP1;ratioP1;P1;durP2;ratioP2;P2;SDS_P1;SDS_P2;PMS_P1;PMS_P2;Temp;Humidity;BMP_temperature;BMP_pressure;BME280_temperature;BME280_humidity;BME280_pressure;Samples;Min_cycle;Max_cycle;Signal;HPM_P1;HPM_P2
2022/03/18 00:00:20;;;;;;;9.23;7.37;;;6.30;99.90;;;;;;4967061;28;20213;-79
2022/03/18 00:02:48;;;;;;;8.03;6.13;;;6.30;99.90;;;;;;4955819;28;20208;-77
2022/03/18 00:05:17;;;;;;;11.93;7.07;;;6.30;99.90;;;;;;4953580;28;20201;-77
2022/03/18 00:07:47;;;;;;;8.50;6.47;;;6.20;99.90;;;;;;4960865;28;20233;-77
2022/03/18 00:10:15;;;;;;;11.20;6.23;;;6.20;99.90;;;;;;4970691;28;20209;-77
2022/03/18 00:12:43;;;;;;;8.50;5.37;;;6.10;99.90;;;;;;4975307;28;20561;-77
2022/03/18 00:15:13;;;;;;;8.83;5.47;;;6.10;99.90;;;;;;4975618;28;20205;-77
2022/03/18 00:17:40;;;;;;;9.90;5.97;;;6.20;99.90;;;;;;4955469;28;20225;-77
2022/03/18 00:20:10;;;;;;;16.00;8.33;;;6.30;99.90;;;;;;4956042;28;20201;-77
2022/03/18 00:22:38;;;;;;;12.40;6.57;;;6.10;99.90;;;;;;4957702;28;20213;-77
2022/03/18 00:25:08;;;;;;;7.13;5.43;;;6.10;99.90;;;;;;4952062;28;20209;-77
2022/03/18 00:27:37;;;;;;;7.40;5.47;;;6.10;99.90;;;;;;4969141;28;20223;-77
2022/03/18 00:30:05;;;;;;;7.93;5.77;;;6.10;99.90;;;;;;4954062;28;20220;-80
2022/03/18 00:32:33;;;;;;;7.67;5.43;;;6.00;99.90;;;;;;4969991;28;20215;-77
2022/03/18 00:35:00;;;;;;;8.50;5.83;;;6.00;99.90;;;;;;4986000;28;20267;-76
2022/03/18 00:37:28;;;;;;;8.33;5.20;;;6.00;99.90;;;;;;4972360;28;20231;-77
2022/03/18 00:39:55;;;;;;;7.77;5.17;;;5.90;99.90;;;;;;4956295;28;20372;-77
2022/03/18 00:42:24;;;;;;;8.50;5.43;;;6.00;99.90;;;;;;4957477;28;20213;-77
2022/03/18 00:44:51;;;;;;;8.00;6.27;;;6.10;99.90;;;;;;4972806;28;20203;-77
2022/03/18 00:52:48;;;;;;;7.33;5.00;;;5.80;99.90;;;;;;4977256;28;20228;-77
2022/03/18 00:55:16;;;;;;;6.53;4.80;;;5.90;99.90;;;;;;4969895;28;20706;-77
2022/03/18 00:57:44;;;;;;;8.17;4.97;;;5.90;99.90;;;;;;4986769;28;20221;-77
2022/03/18 01:00:13;;;;;;;11.00;5.13;;;6.00;99.90;;;;;;4953624;28;20220;-77
2022/03/18 01:02:40;;;;;;;7.47;5.00;;;6.10;99.90;;;;;;4984757;28;20217;-77
2022/03/18 01:05:08;;;;;;;5.53;4.57;;;6.20;99.90;;;;;;4968085;28;20209;-78
2022/03/18 01:07:36;;;;;;;7.13;4.70;;;6.30;99.90;;;;;;4984115;28;20232;-79
2022/03/18 01:10:04;;;;;;;8.13;5.30;;;6.30;99.90;;;;;;4966676;28;20193;-78
2022/03/18 01:12:31;;;;;;;7.77;5.23;;;6.20;99.90;;;;;;4986448;28;20223;-77
2022/03/18 01:15:00;;;;;;;8.30;5.13;;;6.30;99.90;;;;;;4986575;28;20223;-77
2022/03/18 01:17:27;;;;;;;8.50;4.40;;;6.30;99.90;;;;;;4968446;28;20221;-78
2022/03/18 01:19:55;;;;;;;8.13;5.30;;;6.40;99.90;;;;;;4973431;28;20211;-77
2022/03/18 01:22:22;;;;;;;8.53;5.03;;;6.30;99.90;;;;;;4985308;28;20208;-78
2022/03/18 01:24:49;;;;;;;10.33;5.13;;;6.20;99.90;;;;;;4967967;28;20659;-77
2022/03/18 01:27:17;;;;;;;7.27;4.87;;;6.10;99.90;;;;;;4952998;28;20212;-78
2022/03/18 01:29:45;;;;;;;9.43;5.40;;;6.10;99.90;;;;;;4984763;28;20217;-77
2022/03/18 01:32:13;;;;;;;8.20;4.23;;;6.10;99.90;;;;;;4987125;28;20205;-77
2022/03/18 01:34:41;;;;;;;7.50;5.33;;;6.00;99.90;;;;;;4974364;28;20252;-77
2022/03/18 01:37:09;;;;;;;5.87;4.73;;;6.10;99.90;;;;;;4968277;28;20208;-82
2022/03/18 01:39:36;;;;;;;5.80;4.57;;;6.10;99.90;;;;;;4989515;28;20204;-78
2022/03/18 01:42:04;;;;;;;6.13;4.77;;;6.10;99.90;;;;;;4973122;28;20204;-77
2022/03/18 01:44:41;;;;;;;9.53;5.67;;;6.10;99.90;;;;;;4973318;28;20216;-77
2022/03/18 01:47:08;;;;;;;8.20;5.30;;;6.00;99.90;;;;;;4990108;28;20201;-78
2022/03/18 01:49:37;;;;;;;6.63;5.13;;;6.00;99.90;;;;;;4978245;28;20201;-78
2022/03/18 01:52:07;;;;;;;9.67;5.20;;;6.00;99.90;;;;;;4988474;28;20219;-80
2022/03/18 01:54:47;;;;;;;6.97;4.57;;;6.00;99.90;;;;;;4992533;28;20244;-77
2022/03/18 01:57:18;;;;;;;7.83;5.10;;;5.90;99.90;;;;;;4970966;28;20206;-78
2022/03/18 01:59:47;;;;;;;8.63;4.77;;;5.80;99.90;;;;;;4976458;28;20200;-77
2022/03/18 02:02:15;;;;;;;6.70;4.67;;;5.80;99.90;;;;;;4985123;28;20208;-77
2022/03/18 02:04:44;;;;;;;6.27;4.20;;;5.70;99.90;;;;;;4976109;28;20210;-77
2022/03/18 02:07:12;;;;;;;8.70;4.83;;;5.80;99.90;;;;;;4969677;28;20199;-81
2022/03/18 02:09:47;;;;;;;8.70;5.03;;;5.70;99.90;;;;;;4991270;28;20214;-77
2022/03/18 02:12:15;;;;;;;7.13;4.37;;;5.50;99.90;;;;;;4993801;28;20205;-77
2022/03/18 02:14:43;;;;;;;7.60;4.27;;;5.50;99.90;;;;;;4976608;28;20207;-77
2022/03/18 02:17:13;;;;;;;6.70;4.43;;;5.50;99.90;;;;;;4975664;28;20224;-77
2022/03/18 02:19:43;;;;;;;8.17;5.80;;;5.40;99.90;;;;;;4978394;28;20673;-77
2022/03/18 02:22:12;;;;;;;5.97;4.43;;;5.50;99.90;;;;;;4974583;28;20208;-76
2022/03/18 02:24:42;;;;;;;8.90;4.47;;;5.60;99.90;;;;;;4982816;28;20207;-78
2022/03/18 02:27:10;;;;;;;7.30;4.77;;;5.60;99.90;;;;;;4974864;28;20192;-77
2022/03/18 02:29:37;;;;;;;6.10;4.60;;;5.50;99.90;;;;;;4971273;28;20199;-77
2022/03/18 02:32:07;;;;;;;7.20;4.67;;;5.40;99.90;;;;;;4970517;28;20556;-77
2022/03/18 02:34:35;;;;;;;8.67;4.70;;;5.50;99.90;;;;;;4987861;28;20565;-78
2022/03/18 02:37:02;;;;;;;6.13;4.30;;;5.40;99.90;;;;;;4970832;28;20225;-77
2022/03/18 02:39:30;;;;;;;7.40;4.83;;;5.30;99.90;;;;;;4983107;28;20223;-80
2022/03/18 02:41:59;;;;;;;6.90;4.00;;;5.20;99.90;;;;;;4987662;28;20654;-78
2022/03/18 02:44:27;;;;;;;6.70;3.73;;;5.10;99.90;;;;;;4969827;28;20202;-77
2022/03/18 02:46:55;;;;;;;6.50;4.13;;;4.90;99.90;;;;;;4975565;28;20208;-77
2022/03/18 02:49:24;;;;;;;8.13;3.90;;;4.90;99.90;;;;;;4987220;28;20224;-77
2022/03/18 02:51:52;;;;;;;5.03;3.67;;;4.90;99.90;;;;;;4984578;28;20286;-77
2022/03/18 02:54:19;;;;;;;6.10;3.97;;;4.80;99.90;;;;;;4971616;28;20198;-77
2022/03/18 02:56:47;;;;;;;6.10;3.63;;;4.90;99.90;;;;;;4973412;28;20225;-77
2022/03/18 02:59:16;;;;;;;5.87;3.67;;;4.80;99.90;;;;;;4973677;28;20223;-77
2022/03/18 03:01:44;;;;;;;7.57;3.80;;;4.80;99.90;;;;;;4990152;28;20199;-77
2022/03/18 03:04:13;;;;;;;7.23;3.90;;;4.80;99.90;;;;;;4965802;28;20210;-77
2022/03/18 03:09:25;;;;;;;8.80;5.87;;;4.90;99.90;;;;;;4989591;28;20215;-77
2022/03/18 03:11:53;;;;;;;8.23;4.57;;;4.90;99.90;;;;;;4969980;28;20232;-78
2022/03/18 03:14:21;;;;;;;9.27;4.57;;;5.00;99.90;;;;;;4974419;28;20203;-77
2022/03/18 03:16:49;;;;;;;7.93;4.20;;;5.00;99.90;;;;;;4974178;28;20229;-79
2022/03/18 03:19:17;;;;;;;6.90;3.97;;;4.90;99.90;;;;;;4974151;28;20219;-78
2022/03/18 03:21:44;;;;;;;6.97;3.70;;;5.10;99.90;;;;;;4977484;28;20206;-78
2022/03/18 03:24:12;;;;;;;6.70;4.73;;;5.20;99.90;;;;;;4974394;28;20284;-77
2022/03/18 03:26:39;;;;;;;8.03;4.67;;;5.20;99.90;;;;;;4971666;28;20200;-77
2022/03/18 03:29:07;;;;;;;6.10;4.20;;;5.20;99.90;;;;;;4974230;28;20227;-77
2022/03/18 03:31:35;;;;;;;5.90;4.00;;;5.20;99.90;;;;;;4973121;28;20674;-77
2022/03/18 03:34:03;;;;;;;10.73;3.83;;;5.10;99.90;;;;;;4991974;28;20191;-77
2022/03/18 03:36:31;;;;;;;8.37;4.53;;;5.00;99.90;;;;;;4989559;28;20230;-77
2022/03/18 03:38:58;;;;;;;6.77;3.93;;;5.00;99.90;;;;;;4972987;28;20230;-79
2022/03/18 03:41:25;;;;;;;7.57;3.73;;;5.10;99.90;;;;;;4979268;28;20207;-77
2022/03/18 03:43:53;;;;;;;7.70;3.43;;;5.20;99.90;;;;;;4990739;28;20228;-77
2022/03/18 03:46:20;;;;;;;7.53;3.37;;;5.30;99.90;;;;;;4989050;28;20199;-77
2022/03/18 03:48:49;;;;;;;8.47;4.40;;;5.30;99.90;;;;;;4973236;28;20231;-77
2022/03/18 03:51:16;;;;;;;7.30;3.70;;;5.30;99.90;;;;;;4990825;28;20205;-77
2022/03/18 03:53:43;;;;;;;7.50;3.43;;;5.30;99.90;;;;;;4977294;28;20198;-77
2022/03/18 03:56:11;;;;;;;6.67;3.50;;;5.30;99.90;;;;;;4984030;28;20231;-76
2022/03/18 03:58:38;;;;;;;4.97;3.73;;;5.40;99.90;;;;;;4974406;28;20222;-78
2022/03/18 04:01:05;;;;;;;5.53;3.80;;;5.40;99.90;;;;;;4966767;28;20209;-77
2022/03/18 04:03:33;;;;;;;7.17;3.47;;;5.40;99.90;;;;;;4983637;28;20199;-77
2022/03/18 04:06:02;;;;;;;9.73;3.83;;;5.40;99.90;;;;;;5000069;28;20214;-77
2022/03/18 04:08:30;;;;;;;6.27;3.50;;;5.50;99.90;;;;;;4991194;28;20232;-77
2022/03/18 04:10:57;;;;;;;9.23;4.23;;;5.60;99.90;;;;;;4987854;28;20572;-77
2022/03/18 04:13:24;;;;;;;4.00;3.40;;;5.70;99.90;;;;;;4979505;28;20214;-77
2022/03/18 04:15:53;;;;;;;7.07;3.57;;;5.70;99.90;;;;;;4973181;28;20222;-78
2022/03/18 04:18:20;;;;;;;6.37;3.60;;;5.70;99.90;;;;;;4978712;28;20231;-77
2022/03/18 04:20:48;;;;;;;5.57;3.87;;;5.70;99.90;;;;;;4965888;28;20216;-77
2022/03/18 04:23:16;;;;;;;7.50;3.70;;;5.70;99.90;;;;;;4986957;28;20195;-77
2022/03/18 04:25:44;;;;;;;6.43;3.63;;;5.60;99.90;;;;;;4967978;28;20207;-76
2022/03/18 04:28:25;;;;;;;7.97;3.60;;;5.50;99.90;;;;;;4989149;28;20222;-77
2022/03/18 04:30:52;;;;;;;5.60;3.53;;;5.50;99.90;;;;;;4992005;28;20202;-77
2022/03/18 04:33:19;;;;;;;7.83;4.27;;;5.40;99.90;;;;;;4975272;28;20689;-77
2022/03/18 04:35:47;;;;;;;9.40;4.60;;;5.50;99.90;;;;;;4974792;28;20234;-77
2022/03/18 04:38:16;;;;;;;6.87;4.00;;;5.40;99.90;;;;;;4989390;28;20224;-78
2022/03/18 04:40:43;;;;;;;8.93;4.13;;;5.40;99.90;;;;;;4971238;28;20210;-77
2022/03/18 04:43:11;;;;;;;7.07;4.20;;;5.50;99.90;;;;;;4989109;28;20673;-78
2022/03/18 04:45:38;;;;;;;6.83;4.07;;;5.50;99.90;;;;;;4988153;28;20208;-78
2022/03/18 04:48:06;;;;;;;7.87;3.97;;;5.60;99.90;;;;;;4989274;28;20220;-79
2022/03/18 04:50:34;;;;;;;6.63;4.07;;;5.50;99.90;;;;;;4975890;28;20206;-78
2022/03/18 04:53:01;;;;;;;9.43;4.10;;;5.40;99.90;;;;;;4966601;28;20558;-78
2022/03/18 04:55:30;;;;;;;7.77;3.30;;;5.60;99.90;;;;;;4957419;28;20205;-78
2022/03/18 04:57:57;;;;;;;8.73;4.20;;;6.00;99.90;;;;;;4962516;28;20231;-78
2022/03/18 05:00:25;;;;;;;6.30;4.10;;;6.30;99.90;;;;;;4961073;28;20204;-78
2022/03/18 05:03:14;;;;;;;7.00;4.63;;;6.40;99.90;;;;;;4959351;28;20658;-78
2022/03/18 05:05:42;;;;;;;6.90;4.47;;;6.10;99.90;;;;;;4957864;28;20210;-78
2022/03/18 05:08:09;;;;;;;6.97;4.80;;;5.80;99.90;;;;;;4977737;28;20216;-77
2022/03/18 05:10:38;;;;;;;8.87;4.47;;;5.40;99.90;;;;;;4955424;28;20300;-78
2022/03/18 05:13:05;;;;;;;7.67;4.70;;;5.20;99.90;;;;;;4973162;28;20218;-77
2022/03/18 05:15:33;;;;;;;8.57;5.00;;;5.30;99.90;;;;;;4957558;28;20211;-78
2022/03/18 05:18:00;;;;;;;7.43;5.63;;;5.70;99.90;;;;;;4956456;28;20595;-77
2022/03/18 05:20:29;;;;;;;7.33;5.30;;;5.90;99.90;;;;;;4966708;28;20576;-77
2022/03/18 05:22:56;;;;;;;6.50;5.13;;;6.10;99.90;;;;;;4983451;28;20211;-77
2022/03/18 05:25:24;;;;;;;9.47;5.80;;;6.10;99.90;;;;;;4944121;28;20208;-77
2022/03/18 05:27:53;;;;;;;10.73;5.60;;;5.70;99.90;;;;;;4971773;28;20235;-77
2022/03/18 05:30:56;;;;;;;10.03;5.47;;;5.60;99.90;;;;;;4957759;28;20202;-79
2022/03/18 05:33:23;;;;;;;10.67;5.60;;;5.00;99.90;;;;;;4954920;28;20214;-77
2022/03/18 05:35:50;;;;;;;11.97;5.33;;;4.50;99.90;;;;;;4955586;28;20206;-78
2022/03/18 05:38:18;;;;;;;10.63;5.30;;;4.40;99.90;;;;;;4957777;28;20238;-77
2022/03/18 05:40:45;;;;;;;9.23;5.40;;;4.50;99.90;;;;;;4956982;28;20379;-77
2022/03/18 05:43:14;;;;;;;8.73;6.23;;;4.80;99.90;;;;;;4966072;28;20199;-77
2022/03/18 05:45:42;;;;;;;11.03;5.80;;;5.00;99.90;;;;;;4959117;28;20197;-77
2022/03/18 05:48:09;;;;;;;8.67;6.30;;;5.20;99.90;;;;;;4960979;28;20250;-77
2022/03/18 05:50:37;;;;;;;8.23;6.10;;;5.30;99.90;;;;;;4979424;28;20196;-77
2022/03/18 05:53:04;;;;;;;10.77;5.70;;;5.00;99.90;;;;;;4985402;28;20205;-77
2022/03/18 05:58:26;;;;;;;8.60;6.30;;;4.80;99.90;;;;;;4986313;28;20709;-77
2022/03/18 06:01:29;;;;;;;8.67;6.07;;;4.70;99.90;;;;;;4976856;28;20202;-79
2022/03/18 06:03:56;;;;;;;11.20;5.43;;;4.50;99.90;;;;;;4974673;28;20228;-77
2022/03/18 06:06:24;;;;;;;8.90;5.53;;;4.30;99.90;;;;;;4992127;28;20550;-80
2022/03/18 06:12:00;;;;;;;8.53;5.10;;;4.10;99.90;;;;;;4972390;28;20193;-76
2022/03/18 06:14:30;;;;;;;6.17;3.67;;;4.20;99.90;;;;;;4973949;28;20221;-77
2022/03/18 06:17:00;;;;;;;8.03;4.33;;;6.80;99.90;;;;;;4986566;28;20198;-77
2022/03/18 06:19:28;;;;;;;8.00;5.10;;;7.90;99.90;;;;;;4991587;28;20221;-77
2022/03/18 06:21:57;;;;;;;9.83;5.70;;;7.80;99.90;;;;;;4973823;28;20205;-78
2022/03/18 06:24:25;;;;;;;8.47;5.40;;;6.10;99.90;;;;;;4974371;28;20203;-79
2022/03/18 06:26:53;;;;;;;7.60;4.80;;;5.40;99.90;;;;;;4973485;28;20206;-78
2022/03/18 06:29:21;;;;;;;7.70;4.90;;;4.90;99.90;;;;;;4990491;28;20230;-78
2022/03/18 06:31:50;;;;;;;8.97;4.83;;;4.70;99.90;;;;;;4987600;28;20216;-78
2022/03/18 06:34:30;;;;;;;8.83;5.00;;;4.60;99.90;;;;;;4966527;28;20218;-78
2022/03/18 06:37:00;;;;;;;7.30;5.33;;;4.40;99.90;;;;;;4993067;28;20215;-78
2022/03/18 06:39:27;;;;;;;6.73;5.30;;;4.50;99.90;;;;;;4984875;28;20227;-78
2022/03/18 06:41:56;;;;;;;8.57;5.47;;;4.60;99.90;;;;;;4985673;28;20695;-78
2022/03/18 06:44:23;;;;;;;11.10;5.67;;;4.70;99.90;;;;;;4974703;28;20210;-78
2022/03/18 06:46:52;;;;;;;9.57;6.13;;;5.00;99.90;;;;;;4973587;28;20203;-78
2022/03/18 06:49:20;;;;;;;10.60;7.20;;;5.60;99.90;;;;;;4971056;28;20222;-78
2022/03/18 06:51:47;;;;;;;11.60;6.70;;;5.90;99.90;;;;;;4983125;28;20683;-77
2022/03/18 06:54:15;;;;;;;11.50;6.67;;;5.70;99.90;;;;;;4975024;28;20206;-80
2022/03/18 06:56:44;;;;;;;12.83;6.70;;;6.00;99.90;;;;;;4967396;28;20205;-77
2022/03/18 06:59:12;;;;;;;10.40;6.87;;;5.80;99.90;;;;;;4968056;28;20227;-77
2022/03/18 07:01:39;;;;;;;11.60;7.33;;;5.70;99.90;;;;;;4952782;28;20206;-78
2022/03/18 07:04:08;;;;;;;7.90;6.77;;;5.60;99.90;;;;;;4973632;28;20655;-77
2022/03/18 07:06:53;;;;;;;12.40;7.13;;;5.80;99.90;;;;;;4970075;28;20580;-77
2022/03/18 07:09:20;;;;;;;11.13;7.07;;;5.80;99.90;;;;;;4952776;28;20240;-78
2022/03/18 07:11:48;;;;;;;13.47;7.30;;;5.80;99.90;;;;;;4965070;28;20204;-77
2022/03/18 07:14:15;;;;;;;10.03;6.37;;;5.90;99.90;;;;;;4970384;28;20209;-77
2022/03/18 07:19:29;;;;;;;14.77;7.70;;;5.90;99.90;;;;;;4970093;28;20220;-77
2022/03/18 07:21:56;;;;;;;13.33;7.93;;;6.00;99.90;;;;;;4968697;28;20212;-78
2022/03/18 07:24:23;;;;;;;12.93;8.17;;;6.20;99.90;;;;;;4953465;28;20207;-78
2022/03/18 07:26:51;;;;;;;10.97;7.67;;;6.30;99.90;;;;;;4980275;28;20223;-77
2022/03/18 07:29:18;;;;;;;11.83;8.00;;;6.40;99.90;;;;;;4972594;28;20213;-77
2022/03/18 07:31:46;;;;;;;11.83;7.63;;;6.50;99.90;;;;;;4952924;28;20762;-77
2022/03/18 07:34:13;;;;;;;13.03;7.67;;;6.60;99.90;;;;;;4945482;28;20200;-77
2022/03/18 07:36:42;;;;;;;11.47;7.73;;;6.60;99.90;;;;;;4966680;28;20205;-77
2022/03/18 07:39:09;;;;;;;11.17;7.17;;;6.70;99.90;;;;;;4969302;28;20240;-77
2022/03/18 07:41:37;;;;;;;10.73;7.33;;;6.80;99.90;;;;;;4951452;28;20204;-77
2022/03/18 07:44:05;;;;;;;16.00;8.13;;;7.00;99.90;;;;;;4971562;28;20196;-77
2022/03/18 07:46:33;;;;;;;10.07;7.57;;;7.20;99.90;;;;;;4969287;28;20701;-77
2022/03/18 07:49:00;;;;;;;13.27;8.20;;;7.30;99.90;;;;;;4954986;28;20221;-78
2022/03/18 07:51:27;;;;;;;10.70;7.10;;;7.40;99.90;;;;;;4955978;28;20204;-78
2022/03/18 07:53:57;;;;;;;10.43;7.27;;;7.50;99.90;;;;;;4952613;28;20216;-77
2022/03/18 07:56:24;;;;;;;10.70;7.17;;;7.50;99.90;;;;;;4951185;28;20219;-77
2022/03/18 07:58:51;;;;;;;11.80;7.60;;;7.70;99.90;;;;;;4951998;28;20220;-77
2022/03/18 08:01:21;;;;;;;12.03;7.00;;;7.80;99.90;;;;;;4941830;28;20197;-77
2022/03/18 08:03:49;;;;;;;7.70;6.90;;;7.90;99.90;;;;;;4950761;28;20197;-76
2022/03/18 08:06:16;;;;;;;14.17;6.90;;;8.00;99.90;;;;;;4963578;28;20204;-79
2022/03/18 08:08:43;;;;;;;14.63;7.37;;;8.10;99.90;;;;;;4968221;28;20228;-79
2022/03/18 08:11:12;;;;;;;11.17;6.73;;;8.10;99.90;;;;;;4970416;28;20560;-77
2022/03/18 08:13:41;;;;;;;10.07;6.50;;;8.40;99.90;;;;;;4954900;28;20564;-77
2022/03/18 08:16:09;;;;;;;9.87;7.00;;;8.50;99.90;;;;;;4954400;28;20197;-78
2022/03/18 08:18:38;;;;;;;9.17;6.53;;;8.50;99.90;;;;;;4975037;28;20216;-79
2022/03/18 08:21:34;;;;;;;8.77;6.40;;;8.60;99.90;;;;;;4970079;28;20197;-78
2022/03/18 08:24:03;;;;;;;11.43;6.83;;;8.70;99.90;;;;;;4952494;28;20213;-78
2022/03/18 08:26:34;;;;;;;9.67;6.43;;;8.80;99.90;;;;;;4963211;28;20212;-78
2022/03/18 08:32:27;;;;;;;9.43;6.20;;;8.80;99.90;;;;;;4960344;28;20199;-77
2022/03/18 08:34:54;;;;;;;12.03;5.73;;;8.80;99.90;;;;;;4983468;28;20197;-76
2022/03/18 08:37:56;;;;;;;9.77;5.67;;;9.00;99.90;;;;;;4968708;28;20205;-77
2022/03/18 08:40:11;;;;;;;8.70;5.13;;;9.70;99.90;;;;;;4962670;28;20220;-78
2022/03/18 08:42:40;;;;;;;9.10;4.60;;;9.50;99.90;;;;;;4952869;28;20212;-79
2022/03/18 08:45:09;;;;;;;9.13;4.77;;;9.20;99.90;;;;;;4972697;28;20200;-80
2022/03/18 08:47:37;;;;;;;9.30;5.63;;;9.10;99.90;;;;;;4949947;28;20232;-77
2022/03/18 08:50:04;;;;;;;9.57;5.37;;;9.10;99.90;;;;;;4950486;28;20199;-78
2022/03/18 08:52:32;;;;;;;9.30;5.90;;;9.40;99.90;;;;;;4956555;28;20660;-76
2022/03/18 08:54:59;;;;;;;10.80;5.73;;;9.30;99.90;;;;;;4957570;28;20204;-75
2022/03/18 08:57:28;;;;;;;6.93;5.00;;;9.30;99.90;;;;;;4972830;28;20197;-76
2022/03/18 08:59:57;;;;;;;11.00;6.30;;;9.30;99.90;;;;;;4975430;28;20236;-76
2022/03/18 09:02:25;;;;;;;9.00;5.90;;;9.50;99.90;;;;;;4975857;28;20201;-76
2022/03/18 09:04:52;;;;;;;9.33;5.60;;;9.40;99.90;;;;;;4962280;28;20359;-76
2022/03/18 09:07:20;;;;;;;14.73;5.70;;;9.50;99.90;;;;;;4959267;28;20193;-76
2022/03/18 09:09:48;;;;;;;9.77;5.80;;;9.50;99.90;;;;;;4973680;28;20213;-76
2022/03/18 09:12:17;;;;;;;10.77;6.23;;;9.40;99.90;;;;;;4958395;28;20217;-76
2022/03/18 09:14:46;;;;;;;10.83;6.57;;;9.50;99.90;;;;;;4959359;28;20271;-76
2022/03/18 09:17:15;;;;;;;9.63;6.57;;;9.60;99.60;;;;;;4974825;28;20216;-76
2022/03/18 09:19:42;;;;;;;8.23;5.87;;;9.50;99.50;;;;;;4964473;28;20209;-76
2022/03/18 09:22:10;;;;;;;8.77;6.17;;;9.60;99.90;;;;;;4976302;28;20200;-76
2022/03/18 09:24:38;;;;;;;8.10;5.90;;;9.70;99.30;;;;;;4958129;28;20571;-77
2022/03/18 09:27:07;;;;;;;9.70;5.60;;;9.70;99.90;;;;;;4951402;28;20197;-76
2022/03/18 09:29:35;;;;;;;7.33;5.00;;;9.70;99.30;;;;;;4976586;28;20237;-76
2022/03/18 09:32:02;;;;;;;7.43;4.70;;;9.70;99.10;;;;;;4977101;28;20208;-76
2022/03/18 09:34:31;;;;;;;6.43;4.37;;;9.70;98.40;;;;;;4970486;28;20212;-76
2022/03/18 09:36:59;;;;;;;7.90;3.80;;;9.90;97.90;;;;;;4981814;28;20208;-76
2022/03/18 09:39:27;;;;;;;7.30;4.07;;;9.90;97.10;;;;;;4992137;28;20228;-76
2022/03/18 09:41:56;;;;;;;8.23;4.47;;;9.90;97.30;;;;;;4960804;28;20776;-76
2022/03/18 09:44:23;;;;;;;8.67;4.53;;;10.10;97.30;;;;;;4968838;28;20205;-76
2022/03/18 09:46:52;;;;;;;5.77;4.07;;;10.10;96.60;;;;;;4958435;28;20201;-76
2022/03/18 09:49:22;;;;;;;11.13;4.20;;;10.10;97.00;;;;;;4957040;28;20224;-77
2022/03/18 09:51:50;;;;;;;4.20;3.40;;;10.20;96.30;;;;;;4964603;28;20216;-76
2022/03/18 09:54:28;;;;;;;9.43;4.23;;;10.40;96.00;;;;;;4958915;28;20204;-76
2022/03/18 09:56:56;;;;;;;5.93;3.80;;;10.40;95.10;;;;;;4958853;28;20219;-77
2022/03/18 09:59:25;;;;;;;8.63;4.73;;;10.40;95.10;;;;;;4946159;28;20225;-77
2022/03/18 10:02:27;;;;;;;5.97;3.87;;;10.50;94.90;;;;;;4956720;28;20204;-76
2022/03/18 10:04:56;;;;;;;7.17;4.17;;;10.90;96.70;;;;;;4953087;28;20292;-76
2022/03/18 10:07:26;;;;;;;6.20;4.10;;;10.90;95.40;;;;;;4974264;28;20209;-76
2022/03/18 10:10:05;;;;;;;11.67;4.77;;;10.80;94.60;;;;;;4959500;28;20193;-76
2022/03/18 10:13:03;;;;;;;8.83;4.70;;;10.90;94.70;;;;;;4959987;28;20201;-76
2022/03/18 10:15:30;;;;;;;8.40;5.40;;;10.90;95.40;;;;;;4957543;28;20205;-76
2022/03/18 10:18:00;;;;;;;9.20;5.57;;;11.00;95.50;;;;;;4970938;28;20232;-76
2022/03/18 10:20:30;;;;;;;8.90;4.63;;;11.00;95.80;;;;;;4955445;28;20694;-75
2022/03/18 10:23:04;;;;;;;7.60;5.73;;;11.20;95.80;;;;;;4955704;28;20205;-77
2022/03/18 10:25:41;;;;;;;9.00;6.00;;;11.20;95.50;;;;;;4959658;28;20591;-78
2022/03/18 10:28:10;;;;;;;8.53;5.80;;;11.20;95.20;;;;;;4959892;28;20280;-77
2022/03/18 10:30:38;;;;;;;8.40;5.13;;;11.30;95.10;;;;;;4955848;28;20205;-78
2022/03/18 10:33:14;;;;;;;11.50;6.00;;;11.30;95.40;;;;;;4969553;28;20204;-77
2022/03/18 10:38:36;;;;;;;10.07;6.47;;;11.40;95.60;;;;;;4941151;28;20236;-77
2022/03/18 10:41:08;;;;;;;10.37;5.70;;;11.40;95.90;;;;;;4974634;28;20225;-79
2022/03/18 10:43:52;;;;;;;23.70;10.23;;;11.60;95.30;;;;;;4976071;28;20204;-79
2022/03/18 10:46:20;;;;;;;13.27;6.57;;;11.80;94.30;;;;;;4953689;28;20201;-79
2022/03/18 10:49:03;;;;;;;12.30;6.20;;;12.10;95.00;;;;;;4971059;28;20574;-79
2022/03/18 10:51:31;;;;;;;13.32;6.50;;;12.10;94.40;;;;;;4952839;28;20201;-79
2022/03/18 10:54:00;;;;;;;7.78;5.82;;;12.30;94.00;;;;;;4975417;28;20205;-79
2022/03/18 10:56:28;;;;;;;9.13;6.03;;;12.30;93.60;;;;;;4979213;28;20567;-79
2022/03/18 10:58:56;;;;;;;7.38;5.43;;;12.30;93.70;;;;;;4975803;28;20212;-79
2022/03/18 11:01:24;;;;;;;9.35;5.00;;;12.40;92.40;;;;;;4976391;28;20671;-79
2022/03/18 11:03:52;;;;;;;8.52;5.60;;;12.50;92.00;;;;;;4993405;28;20209;-79
2022/03/18 11:06:21;;;;;;;7.57;4.95;;;12.60;91.80;;;;;;4979050;28;20196;-80
2022/03/18 11:08:49;;;;;;;7.97;5.00;;;12.80;92.10;;;;;;4984580;28;20224;-80
2022/03/18 11:11:22;;;;;;;10.55;4.95;;;12.60;92.10;;;;;;4977120;28;20220;-78
2022/03/18 11:13:52;;;;;;;11.43;5.78;;;13.50;94.10;;;;;;4977441;28;20207;-77
2022/03/18 11:16:21;;;;;;;8.80;5.57;;;14.20;92.90;;;;;;4990177;28;20205;-77
2022/03/18 11:18:50;;;;;;;11.70;5.40;;;13.40;91.10;;;;;;4971415;28;20710;-77
2022/03/18 11:21:21;;;;;;;10.13;5.07;;;13.80;91.50;;;;;;4985741;28;20224;-77
2022/03/18 11:23:49;;;;;;;7.22;4.43;;;14.10;90.80;;;;;;4990651;28;20205;-77
2022/03/18 11:26:20;;;;;;;7.50;4.93;;;13.50;86.90;;;;;;4972846;28;20201;-77
2022/03/18 11:29:06;;;;;;;6.88;4.57;;;13.80;87.50;;;;;;4985120;28;20731;-77
2022/03/18 11:31:34;;;;;;;8.73;4.55;;;13.30;86.80;;;;;;4985472;28;20197;-77
2022/03/18 11:34:42;;;;;;;7.90;4.30;;;14.00;88.50;;;;;;4983535;28;20192;-77
2022/03/18 11:37:10;;;;;;;6.78;4.55;;;13.70;85.80;;;;;;4987506;28;20204;-78
2022/03/18 11:39:38;;;;;;;8.02;4.70;;;13.70;84.20;;;;;;4991033;28;20223;-77
2022/03/18 11:42:09;;;;;;;10.10;5.45;;;13.50;87.20;;;;;;4989980;28;20207;-79
2022/03/18 11:44:53;;;;;;;6.90;4.90;;;14.60;88.80;;;;;;4998354;28;20223;-79
2022/03/18 11:47:46;;;;;;;8.75;5.00;;;14.30;83.70;;;;;;4978747;28;20214;-79
2022/03/18 11:50:48;;;;;;;9.07;4.13;;;14.20;86.10;;;;;;4977108;28;20188;-79
2022/03/18 11:53:51;;;;;;;6.60;4.22;;;14.50;85.90;;;;;;4974364;28;20725;-79
2022/03/18 11:56:20;;;;;;;8.52;5.13;;;14.20;82.40;;;;;;4979058;28;20200;-79
2022/03/18 11:58:50;;;;;;;7.97;4.95;;;15.00;83.20;;;;;;4974933;28;20220;-79
2022/03/18 12:01:40;;;;;;;6.40;4.20;;;14.80;83.60;;;;;;4994483;28;20228;-79
2022/03/18 12:04:08;;;;;;;6.38;4.03;;;15.50;82.90;;;;;;4989769;28;20207;-79
2022/03/18 12:07:13;;;;;;;7.75;4.80;;;15.50;79.50;;;;;;4980321;28;20697;-79
2022/03/18 12:10:05;;;;;;;6.97;3.90;;;15.50;78.40;;;;;;4973010;28;20208;-79
2022/03/18 12:12:37;;;;;;;6.97;4.57;;;16.00;81.20;;;;;;4974693;28;20208;-79
2022/03/18 12:15:09;;;;;;;7.07;4.72;;;16.00;74.80;;;;;;4983399;28;20200;-80
2022/03/18 12:17:41;;;;;;;7.90;4.60;;;15.50;76.40;;;;;;5000678;28;20216;-81
2022/03/18 12:20:11;;;;;;;8.60;4.28;;;16.10;76.00;;;;;;4990916;28;20219;-81
2022/03/18 12:22:39;;;;;;;5.90;4.03;;;15.70;74.20;;;;;;4993989;28;20211;-80
2022/03/18 12:25:08;;;;;;;8.80;4.35;;;15.70;74.40;;;;;;4978700;28;20200;-80
2022/03/18 12:27:38;;;;;;;8.43;3.08;;;16.10;72.80;;;;;;4992164;28;20232;-80
2022/03/18 12:30:10;;;;;;;6.05;3.90;;;15.80;72.60;;;;;;4987649;28;20566;-78
2022/03/18 12:32:40;;;;;;;5.85;3.95;;;15.90;69.30;;;;;;4971808;28;20605;-78
2022/03/18 12:35:08;;;;;;;5.93;3.78;;;15.90;69.20;;;;;;4989326;28;20204;-78
2022/03/18 12:37:35;;;;;;;7.55;4.30;;;15.90;67.70;;;;;;4991635;28;20227;-78
2022/03/18 12:40:06;;;;;;;5.05;3.58;;;16.30;68.00;;;;;;4972387;28;20208;-78
2022/03/18 12:42:49;;;;;;;4.97;4.40;;;16.70;69.00;;;;;;4976658;28;20201;-78
2022/03/18 12:45:29;;;;;;;6.15;4.18;;;17.00;66.10;;;;;;4975972;28;20192;-78
2022/03/18 12:47:57;;;;;;;4.68;3.72;;;17.50;65.30;;;;;;4989187;28;20213;-78
2022/03/18 12:50:29;;;;;;;6.63;4.00;;;17.60;63.60;;;;;;4987735;28;20197;-78
2022/03/18 12:52:57;;;;;;;5.15;3.80;;;18.20;63.00;;;;;;4996676;28;20209;-77
2022/03/18 12:55:25;;;;;;;6.40;3.55;;;18.20;58.70;;;;;;4973401;28;20207;-78
2022/03/18 12:57:58;;;;;;;5.88;3.50;;;18.20;57.20;;;;;;4971881;28;20228;-77
2022/03/18 13:00:27;;;;;;;8.10;3.60;;;18.40;59.10;;;;;;4989397;28;20216;-77
2022/03/18 13:02:56;;;;;;;4.45;3.33;;;18.30;56.90;;;;;;4972665;28;20196;-77
2022/03/18 13:05:27;;;;;;;6.57;4.28;;;18.40;57.80;;;;;;4971410;28;20203;-77
2022/03/18 13:07:57;;;;;;;8.48;4.00;;;19.00;57.80;;;;;;4973368;28;20216;-77
2022/03/18 13:10:25;;;;;;;5.90;3.67;;;17.90;58.20;;;;;;4975062;28;20561;-77
2022/03/18 13:12:52;;;;;;;5.38;3.50;;;18.70;58.20;;;;;;4995796;28;20207;-77
2022/03/18 13:15:21;;;;;;;6.35;3.75;;;19.60;55.60;;;;;;4992344;28;20188;-77
2022/03/18 13:17:50;;;;;;;5.07;3.67;;;20.10;53.30;;;;;;4991726;28;20224;-77
2022/03/18 13:20:25;;;;;;;4.82;3.50;;;19.80;52.10;;;;;;4994242;28;20208;-77
2022/03/18 13:22:54;;;;;;;7.75;3.67;;;18.60;50.50;;;;;;5009261;28;20203;-77
2022/03/18 13:25:22;;;;;;;5.53;3.65;;;18.40;52.90;;;;;;4971570;28;20197;-77
2022/03/18 13:27:50;;;;;;;5.20;3.80;;;18.70;52.10;;;;;;4991240;28;20216;-77
2022/03/18 13:33:07;;;;;;;5.80;4.20;;;18.90;54.00;;;;;;4976492;28;20192;-77